sensor_id;sensor_type;location;lat;lon;timestamp;pressure;altitude;pressure_sealevel;temperature;humidity
12073;BME280;6098;49.004;8.372;2023-05-27T00:08:24;101099.92;;;17.47;56.06
12073;BME280;6098;49.004;8.372;2023-05-27T00:23:19;101094.82;;;17.35;55.99
12073;BME280;6098;49.004;8.372;2023-05-27T00:38:09;101095.50;;;17.06;57.07
12073;BME280;6098;49.004;8.372;2023-05-27T00:53:00;101095.77;;;16.93;56.95
12073;BME280;6098;49.004;8.372;2023-05-27T01:23:08;101080.77;;;16.65;56.31
12073;BME280;6098;49.004;8.372;2023-05-27T01:38:00;101068.95;;;16.35;55.17
12073;BME280;6098;49.004;8.372;2023-05-27T01:52:50;101059.27;;;16.24;55.19
12073;BME280;6098;49.004;8.372;2023-05-27T02:07:42;101047.09;;;16.01;54.72
12073;BME280;6098;49.004;8.372;2023-05-27T02:22:36;101050.56;;;15.94;55.96
12073;BME280;6098;49.004;8.372;2023-05-27T02:37:26;101046.81;;;15.62;57.46
12073;BME280;6098;49.004;8.372;2023-05-27T02:52:17;101045.42;;;15.26;58.71
12073;BME280;6098;49.004;8.372;2023-05-27T03:07:13;101041.49;;;15.06;59.20
12073;BME280;6098;49.004;8.372;2023-05-27T03:22:05;101043.87;;;14.93;59.68
12073;BME280;6098;49.004;8.372;2023-05-27T03:36:57;101050.47;;;14.75;60.52
12073;BME280;6098;49.004;8.372;2023-05-27T03:51:49;101050.63;;;14.62;60.46
12073;BME280;6098;49.004;8.372;2023-05-27T04:06:42;101057.70;;;14.53;60.63
12073;BME280;6098;49.004;8.372;2023-05-27T04:21:37;101065.62;;;14.56;60.65
12073;BME280;6098;49.004;8.372;2023-05-27T04:36:31;101053.14;;;14.46;60.42
12073;BME280;6098;49.004;8.372;2023-05-27T04:51:23;101050.78;;;14.49;60.37
12073;BME280;6098;49.004;8.372;2023-05-27T05:06:14;101049.33;;;14.71;59.19
12073;BME280;6098;49.004;8.372;2023-05-27T05:21:06;101053.98;;;14.86;58.11
12073;BME280;6098;49.004;8.372;2023-05-27T05:36:02;101050.42;;;15.14;55.94
12073;BME280;6098;49.004;8.372;2023-05-27T05:50:54;101038.77;;;15.45;53.93
12073;BME280;6098;49.004;8.372;2023-05-27T06:05:47;101044.50;;;15.73;53.07
12073;BME280;6098;49.004;8.372;2023-05-27T06:20:39;101046.30;;;16.08;52.50
12073;BME280;6098;49.004;8.372;2023-05-27T06:35:31;101042.50;;;16.29;51.35
12073;BME280;6098;49.004;8.372;2023-05-27T06:50:24;101043.55;;;16.68;50.23
12073;BME280;6098;49.004;8.372;2023-05-27T07:05:19;101035.34;;;17.04;50.36
12073;BME280;6098;49.004;8.372;2023-05-27T07:20:12;101042.72;;;17.40;50.04
12073;BME280;6098;49.004;8.372;2023-05-27T07:35:04;101030.91;;;17.59;48.92
12073;BME280;6098;49.004;8.372;2023-05-27T07:50:00;101018.08;;;18.02;48.42
12073;BME280;6098;49.004;8.372;2023-05-27T08:04:51;101005.17;;;18.24;48.02
12073;BME280;6098;49.004;8.372;2023-05-27T08:19:45;100993.40;;;18.55;47.21
12073;BME280;6098;49.004;8.372;2023-05-27T08:34:52;100987.72;;;18.88;47.15
12073;BME280;6098;49.004;8.372;2023-05-27T08:49:46;100980.48;;;19.31;46.47
12073;BME280;6098;49.004;8.372;2023-05-27T09:04:40;100976.42;;;19.58;46.25
12073;BME280;6098;49.004;8.372;2023-05-27T09:19:36;100960.72;;;19.97;46.18
12073;BME280;6098;49.004;8.372;2023-05-27T09:34:30;100946.44;;;20.35;45.51
12073;BME280;6098;49.004;8.372;2023-05-27T09:49:23;100954.22;;;20.71;45.46
12073;BME280;6098;49.004;8.372;2023-05-27T10:04:16;100934.08;;;21.07;44.83
12073;BME280;6098;49.004;8.372;2023-05-27T10:19:09;100919.73;;;21.48;44.31
12073;BME280;6098;49.004;8.372;2023-05-27T10:34:06;100913.92;;;21.77;43.64
12073;BME280;6098;49.004;8.372;2023-05-27T10:49:09;100895.10;;;22.22;43.40
12073;BME280;6098;49.004;8.372;2023-05-27T11:03:54;100887.73;;;22.58;42.59
12073;BME280;6098;49.004;8.372;2023-05-27T11:18:48;100874.61;;;23.07;42.11
12073;BME280;6098;49.004;8.372;2023-05-27T11:33:43;100852.16;;;23.54;41.66
12073;BME280;6098;49.004;8.372;2023-05-27T11:48:36;100818.98;;;23.98;40.61
12073;BME280;6098;49.004;8.372;2023-05-27T12:03:30;100801.21;;;24.46;39.51
12073;BME280;6098;49.004;8.372;2023-05-27T12:18:23;100782.67;;;25.10;38.80
12073;BME280;6098;49.004;8.372;2023-05-27T12:33:16;100776.03;;;25.22;38.03
12073;BME280;6098;49.004;8.372;2023-05-27T12:48:09;100758.86;;;25.65;37.20
12073;BME280;6098;49.004;8.372;2023-05-27T13:03:04;100734.77;;;25.94;36.00
12073;BME280;6098;49.004;8.372;2023-05-27T13:17:57;100722.40;;;26.18;35.28
12073;BME280;6098;49.004;8.372;2023-05-27T13:32:51;100714.31;;;26.31;34.53
12073;BME280;6098;49.004;8.372;2023-05-27T13:47:44;100689.63;;;26.69;33.05
12073;BME280;6098;49.004;8.372;2023-05-27T14:02:40;100658.89;;;27.12;32.48
12073;BME280;6098;49.004;8.372;2023-05-27T14:17:34;100638.31;;;27.61;32.32
12073;BME280;6098;49.004;8.372;2023-05-27T14:32:28;100625.84;;;28.30;30.37
12073;BME280;6098;49.004;8.372;2023-05-27T14:47:22;100627.22;;;28.59;29.86
12073;BME280;6098;49.004;8.372;2023-05-27T15:02:16;100615.78;;;28.91;29.13
12073;BME280;6098;49.004;8.372;2023-05-27T15:17:13;100614.39;;;29.83;27.97
12073;BME280;6098;49.004;8.372;2023-05-27T15:32:07;100613.84;;;29.88;28.24
12073;BME280;6098;49.004;8.372;2023-05-27T15:47:02;100580.53;;;30.45;26.74
12073;BME280;6098;49.004;8.372;2023-05-27T16:01:56;100573.76;;;30.41;25.47
12073;BME280;6098;49.004;8.372;2023-05-27T16:16:52;100575.52;;;30.00;24.48
12073;BME280;6098;49.004;8.372;2023-05-27T16:31:54;100545.73;;;28.35;26.36
12073;BME280;6098;49.004;8.372;2023-05-27T16:46:36;100542.84;;;27.20;27.88
12073;BME280;6098;49.004;8.372;2023-05-27T17:01:28;100534.05;;;26.48;28.42
12073;BME280;6098;49.004;8.372;2023-05-27T17:16:20;100537.01;;;26.11;28.84
12073;BME280;6098;49.004;8.372;2023-05-27T17:31:12;100534.81;;;26.32;29.77
12073;BME280;6098;49.004;8.372;2023-05-27T17:46:10;100532.70;;;29.45;25.71
12073;BME280;6098;49.004;8.372;2023-05-27T18:01:01;100524.63;;;26.52;29.01
12073;BME280;6098;49.004;8.372;2023-05-27T18:15:52;100545.63;;;25.52;31.04
12073;BME280;6098;49.004;8.372;2023-05-27T18:30:42;100543.28;;;25.07;31.95
12073;BME280;6098;49.004;8.372;2023-05-27T19:00:48;100539.66;;;24.07;32.86
12073;BME280;6098;49.004;8.372;2023-05-27T19:15:41;100544.12;;;23.69;34.17
12073;BME280;6098;49.004;8.372;2023-05-27T19:30:33;100551.96;;;23.32;35.35
12073;BME280;6098;49.004;8.372;2023-05-27T19:45:26;100556.80;;;22.98;35.98
12073;BME280;6098;49.004;8.372;2023-05-27T20:00:17;100539.63;;;22.57;36.69
12073;BME280;6098;49.004;8.372;2023-05-27T20:15:10;100542.64;;;22.27;37.36
12073;BME280;6098;49.004;8.372;2023-05-27T20:30:06;100548.69;;;22.46;37.25
12073;BME280;6098;49.004;8.372;2023-05-27T20:44:59;100555.06;;;23.12;36.31
12073;BME280;6098;49.004;8.372;2023-05-27T20:59:54;100550.83;;;23.50;36.17
12073;BME280;6098;49.004;8.372;2023-05-27T21:14:48;100543.89;;;23.66;35.94
12073;BME280;6098;49.004;8.372;2023-05-27T21:29:44;100535.66;;;23.73;36.15
12073;BME280;6098;49.004;8.372;2023-05-27T21:44:37;100533.34;;;23.43;37.42
12073;BME280;6098;49.004;8.372;2023-05-27T21:59:31;100532.61;;;23.11;37.99
12073;BME280;6098;49.004;8.372;2023-05-27T22:14:24;100528.91;;;22.82;38.69
12073;BME280;6098;49.004;8.372;2023-05-27T22:29:18;100517.94;;;22.42;39.17
12073;BME280;6098;49.004;8.372;2023-05-27T22:44:12;100498.86;;;22.02;40.13
12073;BME280;6098;49.004;8.372;2023-05-27T22:59:22;100484.39;;;21.77;40.64
12073;BME280;6098;49.004;8.372;2023-05-27T23:14:16;100491.83;;;21.30;41.66
12073;BME280;6098;49.004;8.372;2023-05-27T23:29:10;100485.41;;;21.16;42.00
12073;BME280;6098;49.004;8.372;2023-05-27T23:44:04;100484.61;;;20.81;42.25
12073;BME280;6098;49.004;8.372;2023-05-27T23:58:58;100475.13;;;20.59;42.85
